Paulo Afonso, Brazil
Current Conditions -  °F | °C
As of 11:00 AM on Thursday 18 Dec 2014 (Local Time) from SBUF Reporting Station
Broken Clouds Broken Clouds  
Wind Chill: 84°   Ceiling: 7000
Heat Index: 87°   Visibility: 6mi
Dew Point: 68°   Wind: 3mph
Humidity: 58%   Direction: 360°N
Pressure: 29.94"   Gusts: NA
Location:  9.41°S, 38.21°W
Report Text: SBUF 181400Z 36003KT 9999 FEW019 BKN070 29/20 Q1014
Loading
Personal Weather Stations






























Interactive Weather Map New forecast layout! Learn more

10-Day Weather Forecast

Advertisements
Track Severe Weather on mobile